createdAt,value
2023-01-15T00:01:43.649Z,99036.31
2023-01-15T00:04:12.142Z,99034.41
2023-01-15T00:06:41.419Z,99015.06
2023-01-15T00:09:09.213Z,98999.94
2023-01-15T00:11:35.876Z,99008.56
2023-01-15T00:14:02.581Z,98983.09
2023-01-15T00:16:30.468Z,98962.84
2023-01-15T00:19:01.986Z,98958.41
2023-01-15T00:21:29.324Z,98950.44
2023-01-15T00:24:14.820Z,98957.34
2023-01-15T00:27:01.858Z,98940.72
2023-01-15T00:29:28.848Z,98937.13
2023-01-15T00:32:07.281Z,98922.22
2023-01-15T00:34:35.190Z,98916.03
2023-01-15T00:37:02.296Z,98905.59
2023-01-15T00:39:29.261Z,98900.25
2023-01-15T00:41:56.767Z,98919.50
2023-01-15T00:44:23.579Z,98895.94
2023-01-15T00:46:50.350Z,98889.81
2023-01-15T00:49:17.363Z,98868.00
2023-01-15T00:51:44.098Z,98866.34
2023-01-15T00:54:11.213Z,98856.00
2023-01-15T00:56:37.924Z,98846.34
2023-01-15T00:59:05.347Z,98829.78
2023-01-15T01:01:32.514Z,98827.16
2023-01-15T01:03:59.344Z,98812.34
2023-01-15T01:06:26.201Z,98809.75
2023-01-15T01:08:52.919Z,98798.66
2023-01-15T01:11:23.921Z,98793.50
2023-01-15T01:13:50.831Z,98773.59
2023-01-15T01:16:32.122Z,98777.22
2023-01-15T01:19:00.163Z,98779.13
2023-01-15T01:21:27.732Z,98754.75
2023-01-15T01:23:55.048Z,98752.13
2023-01-15T01:26:21.830Z,98735.66
2023-01-15T01:28:50.309Z,98728.72
2023-01-15T01:31:17.874Z,98713.09
2023-01-15T01:33:44.815Z,98699.19
2023-01-15T01:36:11.639Z,98704.56
2023-01-15T01:38:38.348Z,98685.34
2023-01-15T01:41:05.240Z,98681.84
2023-01-15T01:43:31.979Z,98671.34
2023-01-15T01:45:58.747Z,98655.75
2023-01-15T01:48:30.915Z,98634.91
2023-01-15T01:51:01.838Z,98620.91
2023-01-15T01:53:31.441Z,98610.47
2023-01-15T01:55:59.393Z,98600.09
2023-01-15T01:58:31.145Z,98582.66
2023-01-15T02:00:59.042Z,98595.00
2023-01-15T02:03:31.681Z,98565.38
2023-01-15T02:06:01.380Z,98547.00
2023-01-15T02:08:28.257Z,98544.41
2023-01-15T02:10:56.711Z,98528.75
2023-01-15T02:13:26.608Z,98524.50
2023-01-15T02:16:21.578Z,98514.09
2023-01-15T02:18:54.000Z,98495.78
2023-01-15T02:21:27.474Z,98496.00
2023-01-15T02:24:09.385Z,98482.94
2023-01-15T02:26:58.505Z,98468.19
2023-01-15T02:29:52.010Z,98451.75
2023-01-15T02:32:37.237Z,98443.22
2023-01-15T02:35:13.063Z,98437.19
2023-01-15T02:37:45.206Z,98419.91
2023-01-15T02:40:13.579Z,98406.09
2023-01-15T02:42:42.749Z,98386.97
2023-01-15T02:45:13.145Z,98394.88
2023-01-15T02:47:43.357Z,98356.53
2023-01-15T02:50:14.100Z,98367.94
2023-01-15T02:52:49.631Z,98367.09
2023-01-15T02:55:24.703Z,98354.94
2023-01-15T02:57:54.429Z,98348.97
2023-01-15T03:00:23.697Z,98327.13
2023-01-15T03:02:58.734Z,98317.66
2023-01-15T03:05:32.377Z,98303.59
2023-01-15T03:08:02.488Z,98283.63
2023-01-15T03:10:50.476Z,98281.13
2023-01-15T03:13:34.580Z,98267.28
2023-01-15T03:16:33.520Z,98262.94
2023-01-15T03:19:15.562Z,98250.00
2023-01-15T03:21:54.307Z,98226.56
2023-01-15T03:24:43.849Z,98209.09
2023-01-15T03:27:11.128Z,98211.81
2023-01-15T03:29:43.701Z,98201.38
2023-01-15T03:32:10.977Z,98193.53
2023-01-15T03:34:46.634Z,98181.34
2023-01-15T03:37:14.130Z,98176.88
2023-01-15T03:39:42.635Z,98150.72
2023-01-15T03:42:24.095Z,98145.50
2023-01-15T03:45:03.126Z,98150.88
2023-01-15T03:47:29.712Z,98129.91
2023-01-15T03:50:02.106Z,98113.44
2023-01-15T03:52:31.783Z,98115.22
2023-01-15T03:55:24.950Z,98105.72
2023-01-15T03:57:59.330Z,98097.94
2023-01-15T04:00:30.397Z,98074.41
2023-01-15T04:02:58.619Z,98069.31
2023-01-15T04:05:26.876Z,98059.78
2023-01-15T04:07:55.250Z,98051.91
2023-01-15T04:10:21.957Z,98041.50
2023-01-15T04:12:49.463Z,98046.69
2023-01-15T04:15:16.892Z,98038.81
2023-01-15T04:17:43.692Z,98023.00
2023-01-15T04:20:11.528Z,98015.97
2023-01-15T04:22:38.598Z,98006.28
2023-01-15T04:25:06.639Z,98002.66
2023-01-15T04:27:33.428Z,97994.81
2023-01-15T04:30:00.386Z,97993.81
2023-01-15T04:32:27.607Z,97968.44
2023-01-15T04:34:54.339Z,97960.31
2023-01-15T04:37:21.020Z,97948.06
2023-01-15T04:39:47.809Z,97943.59
2023-01-15T04:42:33.404Z,97931.22
2023-01-15T04:45:00.113Z,97922.34
2023-01-15T04:47:26.813Z,97904.00
2023-01-15T04:49:53.489Z,97894.19
2023-01-15T04:52:20.161Z,97906.22
2023-01-15T04:54:46.792Z,97898.97
2023-01-15T04:57:13.491Z,97889.06
2023-01-15T04:59:40.124Z,97893.13
2023-01-15T05:02:07.200Z,97885.88
2023-01-15T05:04:34.792Z,97879.34
2023-01-15T05:07:02.932Z,97867.56
2023-01-15T05:09:29.598Z,97871.53
2023-01-15T05:11:56.259Z,97862.38
2023-01-15T05:14:22.975Z,97857.53
2023-01-15T05:16:49.672Z,97853.81
2023-01-15T05:19:16.411Z,97861.31
2023-01-15T05:21:45.057Z,97847.09
2023-01-15T05:24:16.795Z,97846.75
2023-01-15T05:26:44.681Z,97846.38
2023-01-15T05:29:13.802Z,97839.09
2023-01-15T05:31:42.769Z,97842.38
2023-01-15T05:34:10.336Z,97843.97
2023-01-15T05:36:37.748Z,97847.19
2023-01-15T05:39:05.217Z,97847.06
2023-01-15T05:41:50.760Z,97859.00
2023-01-15T05:44:23.957Z,97859.78
2023-01-15T05:46:52.833Z,97860.50
2023-01-15T05:49:21.872Z,97854.25
2023-01-15T05:51:49.241Z,97862.84
2023-01-15T05:54:20.382Z,97855.84
2023-01-15T05:56:48.681Z,97860.16
2023-01-15T05:59:17.679Z,97851.44
2023-01-15T06:01:44.483Z,97849.72
2023-01-15T06:04:14.329Z,97855.94
2023-01-15T06:06:42.663Z,97855.09
2023-01-15T06:09:09.693Z,97865.59
2023-01-15T06:11:36.408Z,97862.13
2023-01-15T06:14:03.081Z,97871.78
2023-01-15T06:16:29.746Z,97863.91
2023-01-15T06:19:01.025Z,97871.97
2023-01-15T06:21:27.757Z,97876.28
2023-01-15T06:23:54.630Z,97875.44
2023-01-15T06:26:21.321Z,97868.41
2023-01-15T06:28:48.054Z,97877.97
2023-01-15T06:31:18.674Z,97871.88
2023-01-15T06:33:45.673Z,97876.28
2023-01-15T06:36:18.140Z,97873.75
2023-01-15T06:38:45.227Z,97874.59
2023-01-15T06:41:44.906Z,97871.97
2023-01-15T06:44:35.757Z,97871.19
2023-01-15T06:47:21.932Z,97880.03
2023-01-15T06:50:00.021Z,97873.81
2023-01-15T06:52:28.596Z,97885.28
2023-01-15T06:54:55.539Z,97891.72
2023-01-15T06:57:22.773Z,97896.13
2023-01-15T06:59:50.746Z,97903.06
2023-01-15T07:02:18.563Z,97906.63
2023-01-15T07:04:46.407Z,97912.84
2023-01-15T07:07:13.117Z,97918.09
2023-01-15T07:09:39.793Z,97924.44
2023-01-15T07:12:09.255Z,97917.75
2023-01-15T07:14:36.927Z,97916.31
2023-01-15T07:17:03.930Z,97914.81
2023-01-15T07:19:39.281Z,97916.88
2023-01-15T07:22:14.194Z,97918.06
2023-01-15T07:24:40.953Z,97931.53
2023-01-15T07:27:07.883Z,97926.53
2023-01-15T07:29:34.782Z,97928.56
2023-01-15T07:32:01.527Z,97937.38
2023-01-15T07:34:28.187Z,97942.78
2023-01-15T07:36:54.838Z,97938.56
2023-01-15T07:39:21.649Z,97940.44
2023-01-15T07:42:11.575Z,97943.28
2023-01-15T07:44:56.732Z,97938.25
2023-01-15T07:47:44.664Z,97946.34
2023-01-15T07:50:17.322Z,97949.75
2023-01-15T07:52:44.051Z,97947.19
2023-01-15T07:55:12.891Z,97964.63
2023-01-15T07:57:44.059Z,97961.06
2023-01-15T08:00:14.925Z,97958.53
2023-01-15T08:02:49.825Z,97963.78
2023-01-15T08:05:19.511Z,97967.31
2023-01-15T08:07:49.129Z,97967.44
2023-01-15T08:10:25.505Z,97973.56
2023-01-15T08:13:13.997Z,97970.22
2023-01-15T08:15:44.193Z,97966.75
2023-01-15T08:18:13.567Z,97969.53
2023-01-15T08:20:47.119Z,97967.84
2023-01-15T08:23:13.967Z,97972.22
2023-01-15T08:25:40.627Z,97975.78
2023-01-15T08:28:07.591Z,97968.91
2023-01-15T08:30:34.309Z,97976.09
2023-01-15T08:33:11.524Z,97985.69
2023-01-15T08:35:38.171Z,97989.16
2023-01-15T08:38:06.691Z,97987.44
2023-01-15T08:40:36.305Z,97988.47
2023-01-15T08:43:03.049Z,97995.41
2023-01-15T08:45:29.691Z,98001.50
2023-01-15T08:48:00.445Z,97998.97
2023-01-15T08:50:27.197Z,97998.88
2023-01-15T08:52:53.877Z,98005.03
2023-01-15T08:55:20.584Z,98005.88
2023-01-15T08:57:47.231Z,98011.97
2023-01-15T09:00:15.333Z,98019.78
2023-01-15T09:02:43.347Z,98025.94
2023-01-15T09:05:10.078Z,98015.44
2023-01-15T09:07:37.353Z,98024.16
2023-01-15T09:10:04.608Z,98025.88
2023-01-15T09:12:31.422Z,98031.19
2023-01-15T09:15:01.087Z,98038.19
2023-01-15T09:17:29.728Z,98039.19
2023-01-15T09:19:56.471Z,98044.44
2023-01-15T09:22:23.151Z,98050.63
2023-01-15T09:24:50.838Z,98041.06
2023-01-15T09:27:17.596Z,98048.09
2023-01-15T09:29:44.286Z,98045.53
2023-01-15T09:32:11.010Z,98049.94
2023-01-15T09:34:37.735Z,98046.38
2023-01-15T09:37:04.522Z,98049.00
2023-01-15T09:39:31.857Z,98048.16
2023-01-15T09:42:22.533Z,98049.00
2023-01-15T09:45:02.673Z,98049.00
2023-01-15T09:47:54.735Z,98050.94
2023-01-15T09:50:40.150Z,98057.81
2023-01-15T09:53:31.558Z,98054.34
2023-01-15T09:56:00.641Z,98044.78
2023-01-15T09:58:40.456Z,98058.59
2023-01-15T10:01:16.730Z,98058.50
2023-01-15T10:03:49.544Z,98052.31
2023-01-15T10:06:20.523Z,98063.44
2023-01-15T10:08:49.140Z,98064.22
2023-01-15T10:11:15.763Z,98070.03
2023-01-15T10:13:55.058Z,98059.31
2023-01-15T10:16:27.427Z,98068.94
2023-01-15T10:18:55.990Z,98055.84
2023-01-15T10:21:51.875Z,98067.84
2023-01-15T10:24:28.983Z,98058.13
2023-01-15T10:26:57.552Z,98061.44
2023-01-15T10:29:41.709Z,98056.03
2023-01-15T10:32:14.048Z,98065.44
2023-01-15T10:35:12.740Z,98069.50
2023-01-15T10:37:48.409Z,98066.47
2023-01-15T10:41:00.422Z,98063.44
2023-01-15T10:44:04.549Z,98064.88
2023-01-15T10:46:38.360Z,98072.31
2023-01-15T10:49:16.863Z,98071.22
2023-01-15T10:52:03.243Z,98078.94
2023-01-15T10:54:41.140Z,98071.84
2023-01-15T10:57:15.459Z,98073.53
2023-01-15T10:59:57.381Z,98073.53
2023-01-15T11:02:28.245Z,98083.09
2023-01-15T11:04:55.416Z,98051.50
2023-01-15T11:07:37.105Z,98055.75
2023-01-15T11:10:08.615Z,98067.00
2023-01-15T11:12:54.278Z,98064.19
2023-01-15T11:15:44.460Z,98064.88
2023-01-15T11:18:42.301Z,98070.06
2023-01-15T11:21:15.374Z,98059.44
2023-01-15T11:23:42.534Z,98068.94
2023-01-15T11:26:10.409Z,98067.16
2023-01-15T11:28:43.414Z,98055.72
2023-01-15T11:31:15.155Z,98052.91
2023-01-15T11:34:00.963Z,98040.63
2023-01-15T11:36:29.373Z,98034.53
2023-01-15T11:38:56.782Z,98039.78
2023-01-15T11:41:53.550Z,98032.00
2023-01-15T11:44:40.829Z,98042.50
2023-01-15T11:47:36.116Z,98035.53
2023-01-15T11:50:21.983Z,98039.13
2023-01-15T11:52:53.243Z,98046.16
2023-01-15T11:55:24.043Z,98039.97
2023-01-15T11:57:51.890Z,98019.78
2023-01-15T12:00:32.641Z,98030.13
2023-01-15T12:03:30.768Z,98040.63
2023-01-15T12:06:05.707Z,98037.84
2023-01-15T12:08:56.838Z,98037.84
2023-01-15T12:11:40.404Z,98024.47
2023-01-15T12:14:09.918Z,98027.94
2023-01-15T12:16:40.714Z,98037.50
2023-01-15T12:19:26.826Z,98035.69
2023-01-15T12:22:22.900Z,98030.56
2023-01-15T12:25:07.715Z,98038.25
2023-01-15T12:27:55.513Z,98039.00
2023-01-15T12:30:27.350Z,98018.75
2023-01-15T12:33:19.320Z,98029.16
2023-01-15T12:35:56.900Z,98028.25
2023-01-15T12:38:37.057Z,98030.09
2023-01-15T12:41:48.073Z,98031.91
2023-01-15T12:44:38.579Z,98032.81
2023-01-15T12:47:10.627Z,98027.66
2023-01-15T12:49:45.080Z,98037.38
2023-01-15T12:52:16.203Z,98016.56
2023-01-15T12:54:54.793Z,98032.41
2023-01-15T12:57:35.626Z,98034.19
2023-01-15T13:00:23.521Z,98035.03
2023-01-15T13:02:58.946Z,98028.84
2023-01-15T13:05:54.861Z,98021.91
2023-01-15T13:08:33.269Z,98029.00
2023-01-15T13:11:00.137Z,98016.91
2023-01-15T13:13:33.364Z,98021.34
2023-01-15T13:15:59.997Z,98016.91
2023-01-15T13:18:37.477Z,98006.41
2023-01-15T13:21:25.937Z,98004.69
2023-01-15T13:23:52.569Z,98010.81
2023-01-15T13:26:38.278Z,98017.94
2023-01-15T13:29:13.818Z,98018.88
2023-01-15T13:31:55.471Z,98017.94
2023-01-15T13:34:22.068Z,98011.00
2023-01-15T13:36:51.296Z,98012.94
2023-01-15T13:39:25.144Z,98017.44
2023-01-15T13:42:12.216Z,98019.28
2023-01-15T13:44:49.501Z,98017.78
2023-01-15T13:47:25.711Z,98024.81
2023-01-15T13:49:59.684Z,98026.69
2023-01-15T13:52:32.990Z,98018.88
2023-01-15T13:55:12.061Z,98015.47
2023-01-15T13:57:41.124Z,98017.44
2023-01-15T14:00:33.900Z,98020.06
2023-01-15T14:03:03.765Z,98018.38
2023-01-15T14:05:33.530Z,98028.97
2023-01-15T14:08:02.309Z,98022.88
2023-01-15T14:10:32.033Z,98019.31
2023-01-15T14:13:01.475Z,98026.34
2023-01-15T14:15:53.066Z,98027.25
2023-01-15T14:18:40.799Z,98023.56
2023-01-15T14:21:25.462Z,98033.19
2023-01-15T14:23:58.172Z,98028.63
2023-01-15T14:27:03.030Z,98039.88
2023-01-15T14:30:00.626Z,98037.19
2023-01-15T14:32:44.827Z,98034.56
2023-01-15T14:35:19.730Z,98025.06
2023-01-15T14:37:56.603Z,98014.63
2023-01-15T14:40:34.594Z,98024.41
2023-01-15T14:43:17.739Z,98019.31
2023-01-15T14:45:50.152Z,98012.56
2023-01-15T14:48:29.003Z,98011.00
2023-01-15T14:51:09.620Z,98019.09
2023-01-15T14:53:45.143Z,98006.28
2023-01-15T14:56:35.058Z,98009.09
2023-01-15T14:59:16.676Z,98016.28
2023-01-15T15:01:50.551Z,98015.59
2023-01-15T15:04:23.499Z,98026.25
2023-01-15T15:06:54.579Z,98018.66
2023-01-15T15:09:33.369Z,98020.50
2023-01-15T15:12:22.256Z,98023.19
2023-01-15T15:15:16.995Z,98018.19
2023-01-15T15:18:06.008Z,98016.59
2023-01-15T15:20:55.394Z,98015.00
2023-01-15T15:23:56.607Z,98011.59
2023-01-15T15:26:32.148Z,98019.72
2023-01-15T15:29:01.138Z,98014.53
2023-01-15T15:31:31.286Z,98022.50
2023-01-15T15:33:59.071Z,98023.41
2023-01-15T15:36:30.365Z,98014.63
2023-01-15T15:39:01.532Z,98013.03
2023-01-15T15:41:53.734Z,98011.25
2023-01-15T15:45:17.477Z,98000.00
2023-01-15T15:48:02.932Z,98013.19
2023-01-15T15:50:32.157Z,98005.41
2023-01-15T15:53:00.208Z,98015.06
2023-01-15T15:55:38.208Z,98015.06
2023-01-15T15:58:06.776Z,98008.09
2023-01-15T16:00:38.888Z,98001.06
2023-01-15T16:03:19.588Z,97999.38
2023-01-15T16:05:59.819Z,98002.09
2023-01-15T16:08:28.128Z,98009.88
2023-01-15T16:10:58.181Z,98007.25
2023-01-15T16:13:30.264Z,98010.81
2023-01-15T16:16:01.285Z,98006.50
2023-01-15T16:19:01.863Z,98005.56
2023-01-15T16:21:41.653Z,98007.41
2023-01-15T16:24:21.477Z,97998.63
2023-01-15T16:26:54.565Z,97989.16
2023-01-15T16:29:33.604Z,97985.59
2023-01-15T16:32:00.925Z,97984.75
2023-01-15T16:34:33.417Z,97990.84
2023-01-15T16:37:02.001Z,97990.94
2023-01-15T16:39:34.790Z,98000.47
2023-01-15T16:42:02.433Z,97993.56
2023-01-15T16:44:42.908Z,97990.00
2023-01-15T16:47:22.765Z,97985.69
2023-01-15T16:49:49.474Z,97984.91
2023-01-15T16:52:41.889Z,97979.66
2023-01-15T16:55:34.079Z,97993.72
2023-01-15T16:58:13.114Z,97981.50
2023-01-15T17:00:43.446Z,97988.53
2023-01-15T17:03:25.075Z,97985.84
2023-01-15T17:06:03.727Z,97986.59
2023-01-15T17:08:39.439Z,97983.97
2023-01-15T17:11:22.062Z,97976.19
2023-01-15T17:13:48.843Z,97991.94
2023-01-15T17:16:22.044Z,97991.16
2023-01-15T17:18:51.334Z,97992.00
2023-01-15T17:21:23.522Z,97981.44
2023-01-15T17:23:50.694Z,97983.97
2023-01-15T17:26:20.695Z,97973.31
2023-01-15T17:28:48.310Z,97984.59
2023-01-15T17:31:34.361Z,97979.25
2023-01-15T17:34:03.000Z,97972.22
2023-01-15T17:36:30.676Z,97971.16
2023-01-15T17:38:57.419Z,97965.81
2023-01-15T17:41:24.504Z,97965.72
2023-01-15T17:43:51.553Z,97971.72
2023-01-15T17:46:18.498Z,97950.84
2023-01-15T17:48:45.385Z,97970.03
2023-01-15T17:51:15.122Z,97955.06
2023-01-15T17:53:41.981Z,97948.28
2023-01-15T17:56:37.964Z,97946.50
2023-01-15T17:59:23.259Z,97941.25
2023-01-15T18:02:08.565Z,97936.19
2023-01-15T18:05:14.241Z,97940.59
2023-01-15T18:07:43.400Z,97939.75
2023-01-15T18:10:19.073Z,97942.47
2023-01-15T18:12:45.921Z,97968.69
2023-01-15T18:15:12.912Z,97955.63
2023-01-15T18:17:39.657Z,97957.34
2023-01-15T18:20:06.881Z,97959.03
2023-01-15T18:22:33.681Z,97959.88
2023-01-15T18:25:00.379Z,97949.38
2023-01-15T18:27:30.217Z,97944.97
2023-01-15T18:29:58.786Z,97934.50
2023-01-15T18:32:30.572Z,97931.81
2023-01-15T18:34:57.280Z,97916.06
2023-01-15T18:37:24.037Z,97917.81
2023-01-15T18:39:50.770Z,97917.91
2023-01-15T18:42:17.424Z,97916.13
2023-01-15T18:45:02.895Z,97908.38
2023-01-15T18:47:29.577Z,97911.91
2023-01-15T18:49:56.855Z,97907.59
2023-01-15T18:52:41.899Z,97904.91
2023-01-15T18:55:09.539Z,97910.16
2023-01-15T18:57:36.269Z,97896.09
2023-01-15T19:00:04.165Z,97890.00
2023-01-15T19:02:30.945Z,97894.31
2023-01-15T19:04:57.824Z,97889.06
2023-01-15T19:07:24.489Z,97891.69
2023-01-15T19:09:51.214Z,97882.88
2023-01-15T19:12:19.825Z,97880.19
2023-01-15T19:15:05.148Z,97878.41
2023-01-15T19:17:50.599Z,97868.66
2023-01-15T19:20:19.180Z,97848.53
2023-01-15T19:23:06.503Z,97855.47
2023-01-15T19:25:36.970Z,97844.81
2023-01-15T19:28:04.298Z,97843.78
2023-01-15T19:30:32.506Z,97847.09
2023-01-15T19:32:59.259Z,97844.28
2023-01-15T19:35:25.945Z,97841.22
2023-01-15T19:37:55.114Z,97843.69
2023-01-15T19:40:26.709Z,97840.78
2023-01-15T19:43:14.381Z,97837.88
2023-01-15T19:46:02.343Z,97825.53
2023-01-15T19:48:47.657Z,97827.88
2023-01-15T19:51:14.352Z,97811.94
2023-01-15T19:53:41.111Z,97811.88
2023-01-15T19:56:08.270Z,97817.03
2023-01-15T19:58:35.247Z,97808.13
2023-01-15T20:01:02.457Z,97810.75
2023-01-15T20:03:30.010Z,97790.69
2023-01-15T20:05:56.985Z,97789.81
2023-01-15T20:08:23.780Z,97789.81
2023-01-15T20:10:51.355Z,97794.34
2023-01-15T20:13:39.437Z,97781.28
2023-01-15T20:16:11.584Z,97785.03
2023-01-15T20:18:38.804Z,97795.88
2023-01-15T20:21:05.973Z,97783.16
2023-01-15T20:23:33.260Z,97787.81
2023-01-15T20:26:05.937Z,97775.88
2023-01-15T20:28:33.591Z,97769.22
2023-01-15T20:31:00.364Z,97765.00
2023-01-15T20:33:27.451Z,97757.41
2023-01-15T20:35:54.742Z,97749.72
2023-01-15T20:38:24.058Z,97734.16
2023-01-15T20:40:52.197Z,97737.72
2023-01-15T20:43:38.348Z,97723.84
2023-01-15T20:46:15.643Z,97729.19
2023-01-15T20:49:01.127Z,97726.56
2023-01-15T20:51:27.785Z,97729.25
2023-01-15T20:53:54.601Z,97726.63
2023-01-15T20:56:21.270Z,97719.69
2023-01-15T20:58:48.092Z,97701.34
2023-01-15T21:01:14.908Z,97708.38
2023-01-15T21:03:41.672Z,97711.00
2023-01-15T21:06:09.254Z,97705.75
2023-01-15T21:08:36.126Z,97703.19
2023-01-15T21:11:03.556Z,97698.78
2023-01-15T21:13:31.198Z,97691.03
2023-01-15T21:16:03.602Z,97689.34
2023-01-15T21:18:32.324Z,97679.78
2023-01-15T21:20:59.068Z,97666.66
2023-01-15T21:23:25.895Z,97664.81
2023-01-15T21:25:59.571Z,97660.41
2023-01-15T21:28:26.369Z,97656.00
2023-01-15T21:30:53.160Z,97646.28
2023-01-15T21:33:19.893Z,97646.09
2023-01-15T21:35:46.583Z,97648.53
2023-01-15T21:38:13.307Z,97631.84
2023-01-15T21:40:40.343Z,97621.19
2023-01-15T21:43:25.594Z,97615.75
2023-01-15T21:45:52.412Z,97610.41
2023-01-15T21:48:19.212Z,97613.69
2023-01-15T21:50:45.880Z,97603.97
2023-01-15T21:53:12.727Z,97606.41
2023-01-15T21:55:39.488Z,97605.44
2023-01-15T21:58:06.149Z,97602.00
2023-01-15T22:00:32.824Z,97594.19
2023-01-15T22:02:59.681Z,97585.59
2023-01-15T22:05:26.409Z,97585.66
2023-01-15T22:07:53.293Z,97580.59
2023-01-15T22:10:20.031Z,97571.06
2023-01-15T22:12:46.768Z,97571.06
2023-01-15T22:15:15.744Z,97559.84
2023-01-15T22:17:42.837Z,97554.47
2023-01-15T22:20:10.265Z,97544.00
2023-01-15T22:22:39.309Z,97539.50
2023-01-15T22:25:08.524Z,97538.56
2023-01-15T22:27:40.655Z,97541.19
2023-01-15T22:30:11.773Z,97533.13
2023-01-15T22:32:38.544Z,97522.63
2023-01-15T22:35:06.229Z,97516.44
2023-01-15T22:37:33.273Z,97499.88
2023-01-15T22:39:59.986Z,97512.88
2023-01-15T22:42:31.355Z,97506.72
2023-01-15T22:44:59.866Z,97509.34
2023-01-15T22:47:28.275Z,97503.97
2023-01-15T22:49:55.016Z,97501.34
2023-01-15T22:52:25.166Z,97501.34
2023-01-15T22:54:52.103Z,97494.31
2023-01-15T22:57:18.864Z,97490.03
2023-01-15T22:59:45.718Z,97487.41
2023-01-15T23:02:12.885Z,97492.53
2023-01-15T23:04:39.790Z,97486.44
2023-01-15T23:07:06.602Z,97481.97
2023-01-15T23:09:33.599Z,97478.38
2023-01-15T23:12:00.266Z,97476.59
2023-01-15T23:14:27.417Z,97466.13
2023-01-15T23:16:54.120Z,97466.75
2023-01-15T23:19:20.917Z,97469.31
2023-01-15T23:21:47.640Z,97458.81
2023-01-15T23:24:14.288Z,97459.66
2023-01-15T23:26:41.167Z,97446.53
2023-01-15T23:29:07.977Z,97463.94
2023-01-15T23:31:35.035Z,97449.03
2023-01-15T23:34:01.782Z,97468.28
2023-01-15T23:36:28.512Z,97459.34
2023-01-15T23:38:55.577Z,97455.88
2023-01-15T23:41:43.420Z,97458.41
2023-01-15T23:44:34.490Z,97463.56
2023-01-15T23:47:01.268Z,97472.38
2023-01-15T23:49:27.958Z,97467.84
2023-01-15T23:51:54.897Z,97458.41
2023-01-15T23:54:22.271Z,97459.25
2023-01-15T23:56:49.339Z,97458.31
2023-01-15T23:59:16.101Z,97445.94
